Quick Links (Output Below):   Max & Min Temps   /   Climate Reports   /   Zone Forecasts
River Forecasts   /   Forestry Forecasts   /   Aviation Forecasts   /   Radars   /   Features

Terminal Aerodrome Forecast (Arkadelphia)

Pick a Site:
Arkadelphia | El Dorado | Fayetteville | Fort Smith | Harrison | Highfill | Hot Springs | Jonesboro
Little Rock | Monticello | Mountain Home | Pine Bluff | Texarkana
 Forecast 

KADF 240537Z 2406/2506 28010G18KT P6SM SCT025 BKN040
      TEMPO 2408/2412 BKN025
     FM241200 28012G22KT P6SM SCT040
     FM250000 VRB06KT P6SM SKC=


 Latest METARs (Observations) 
How to Decode METARs
09Z KADF 240856Z AUTO 28007KT 10SM OVC038 11/06 A2973 RMK AO2 53060
         T01050061 SLP080
         
08Z KADF 240756Z AUTO 28015KT 10SM BKN026 OVC032 12/07 A2968 RMK AO2
         T01160066 BKN V OVC PRESRR SLP062
         
07Z KADF 240656Z AUTO 26015KT 10SM BKN033 13/09 A2959 RMK AO2
         T01330088 PRESRR SLP035
         
06Z KADF 240556Z AUTO 25011KT 10SM CLR 14/09 A2955 RMK AO2 51040
         T01440094 10161 20144 402050138 SLP018
         
05Z KADF 240456Z AUTO 26010KT 10SM CLR 16/09 A2952 RMK AO2 T01550094
         SLP008
         
04Z KADF 240356Z AUTO 24016KT 10SM CLR 16/11 A2947 RMK AO2 T01610105
         SLP993
         
03Z KADF 240256Z AUTO 21006KT 10SM CLR 15/14 A2943 RMK AO2 50004
         T01500144 SLP979
         
02Z KADF 240156Z AUTO 19004KT 10SM CLR 15/15 A2943 RMK AO2 T01500150
         SLP978
         
01Z KADF 240056Z AUTO 19004KT 10SM CLR 16/16 A2943 RMK AO2 T01550155
         SLP978
         
00Z KADF 232356Z AUTO 21003KT 10SM SCT040 16/16 A2942 RMK AO2 53019
         T01610161 10205 20161 SLP974
         
***** Today's Observations (Above) *****


Back to Main Page
http://www.srh.noaa.gov/lzk/qfcst.php

USA.gov is the U.S. government's official web portal to all federal, state and local government web resources and services.